KJQF

Concord Regional Airport

Concord, North Carolina, USA
METAR KJQF 162355Z 00000KT 10SM CLR 05/M05 A3025
Observed Flight Rules
Dec-16 @ 23:55 UTC (30 minutes ago) Visual Flight Rules
Wind Visibility Clouds
Calm 10 miles
  • Clear skies
Temperatures Readings
Current 5°C / 41°F
Dewpoint -5°C / 23°F
Humidity 49%
Altimeter 30.25" Hg
Pressure 1024 hPa
Elevation 210
METAR KJQF 162355Z 00000KT 10SM CLR 05/M05 A3025
Observed Flight Rules
Dec-16 @ 23:55 UTC
(30 minutes ago)
VFR
Wind Visibility
Calm 10 miles
Clouds
  • Clear skies
Temperature Dewpoint
5°C / 41°F -5°C / 23°F
Humidity Altimeter Pressure
49% 30.25" Hg 1024 hPa